createdAt,value
2019-01-29T00:02:03.307Z,69.63
2019-01-29T00:04:38.499Z,64.13
2019-01-29T00:07:12.573Z,60.00
2019-01-29T00:09:44.721Z,83.73
2019-01-29T00:12:15.639Z,85.87
2019-01-29T00:14:47.662Z,87.83
2019-01-29T00:17:18.384Z,86.50
2019-01-29T00:19:48.808Z,76.43
2019-01-29T00:22:21.381Z,71.77
2019-01-29T00:24:54.906Z,97.07
2019-01-29T00:27:25.735Z,89.17
2019-01-29T00:29:58.835Z,66.13
2019-01-29T00:32:33.878Z,64.50
2019-01-29T00:35:06.470Z,63.60
2019-01-29T00:37:37.150Z,60.83
2019-01-29T00:40:10.218Z,56.40
2019-01-29T00:42:40.605Z,47.17
2019-01-29T00:45:14.438Z,50.03
2019-01-29T00:47:45.006Z,44.13
2019-01-29T00:50:17.753Z,47.33
2019-01-29T00:52:52.120Z,44.13
2019-01-29T00:55:23.024Z,42.00
2019-01-29T00:57:53.715Z,42.73
2019-01-29T01:00:24.368Z,41.03
2019-01-29T01:02:56.923Z,36.17
2019-01-29T01:05:30.583Z,28.27
2019-01-29T01:08:00.971Z,29.90
2019-01-29T01:10:31.513Z,28.03
2019-01-29T01:13:02.008Z,30.27
2019-01-29T01:15:33.340Z,30.97
2019-01-29T01:18:04.943Z,27.57
2019-01-29T01:20:38.132Z,33.33
2019-01-29T01:23:08.559Z,32.77
2019-01-29T01:25:40.015Z,28.27
2019-01-29T01:28:14.591Z,28.80
2019-01-29T01:30:45.178Z,29.67
2019-01-29T01:33:16.169Z,30.70
2019-01-29T01:35:48.798Z,29.23
2019-01-29T01:38:19.719Z,32.90
2019-01-29T01:40:59.185Z,31.47
2019-01-29T01:43:34.070Z,26.93
2019-01-29T01:46:07.907Z,27.53
2019-01-29T01:48:38.912Z,30.03
2019-01-29T01:51:12.288Z,27.07
2019-01-29T01:53:45.936Z,26.87
2019-01-29T01:56:24.306Z,25.93
2019-01-29T01:59:06.632Z,28.33
2019-01-29T02:01:38.754Z,24.17
2019-01-29T02:04:11.758Z,27.73
2019-01-29T02:06:51.283Z,25.27
2019-01-29T02:09:30.188Z,28.27
2019-01-29T02:12:02.120Z,23.67
2019-01-29T02:14:34.120Z,27.03
2019-01-29T02:17:10.552Z,28.90
2019-01-29T02:19:46.502Z,29.07
2019-01-29T02:22:21.785Z,31.37
2019-01-29T02:24:56.530Z,25.90
2019-01-29T02:27:36.370Z,30.30
2019-01-29T02:30:24.004Z,28.27
2019-01-29T02:33:08.046Z,25.80
2019-01-29T02:35:53.507Z,26.27
2019-01-29T02:38:31.180Z,25.30
2019-01-29T02:41:07.195Z,23.87
2019-01-29T02:44:12.657Z,25.33
2019-01-29T02:46:33.910Z,23.00
2019-01-29T02:49:08.231Z,26.03
2019-01-29T02:51:45.739Z,24.73
2019-01-29T02:54:21.493Z,21.57
2019-01-29T02:56:56.418Z,19.10
2019-01-29T02:59:44.683Z,22.10
2019-01-29T03:02:23.707Z,20.57
2019-01-29T03:04:55.807Z,20.63
2019-01-29T03:07:28.371Z,23.60
2019-01-29T03:10:13.520Z,23.97
2019-01-29T03:12:56.751Z,24.97
2019-01-29T03:15:52.503Z,24.33
2019-01-29T03:18:38.271Z,22.67
2019-01-29T03:21:33.453Z,23.87
2019-01-29T03:24:11.034Z,19.00
2019-01-29T03:26:44.751Z,23.37
2019-01-29T03:29:20.679Z,26.00
2019-01-29T03:32:03.953Z,25.60
2019-01-29T03:34:45.264Z,22.77
2019-01-29T03:37:28.984Z,25.70
2019-01-29T03:40:07.637Z,23.17
2019-01-29T03:42:40.822Z,21.33
2019-01-29T03:45:23.263Z,24.17
2019-01-29T03:48:22.399Z,23.33
2019-01-29T03:51:03.507Z,26.50
2019-01-29T03:53:44.456Z,24.43
2019-01-29T03:56:25.777Z,20.83
2019-01-29T03:59:00.234Z,28.87
2019-01-29T04:01:49.037Z,21.90
2019-01-29T04:04:24.209Z,20.00
2019-01-29T04:07:04.363Z,23.50
2019-01-29T04:09:38.965Z,24.97
2019-01-29T04:12:21.864Z,23.57
2019-01-29T04:14:59.065Z,27.23
2019-01-29T04:17:35.738Z,27.80
2019-01-29T04:20:18.699Z,27.57
2019-01-29T04:22:54.138Z,26.83
2019-01-29T04:25:39.961Z,32.03
2019-01-29T04:28:31.328Z,30.10
2019-01-29T04:31:00.012Z,26.67
2019-01-29T04:33:43.186Z,30.30
2019-01-29T04:36:35.736Z,23.07
2019-01-29T04:39:20.443Z,25.23
2019-01-29T04:41:54.563Z,24.97
2019-01-29T04:44:42.631Z,28.07
2019-01-29T04:47:25.422Z,28.13
2019-01-29T04:49:59.889Z,28.30
2019-01-29T04:52:35.253Z,26.07
2019-01-29T04:55:18.983Z,27.13
2019-01-29T04:58:05.911Z,22.93
2019-01-29T05:00:41.910Z,24.93
2019-01-29T05:03:21.607Z,30.67
2019-01-29T05:06:14.309Z,35.77
2019-01-29T05:08:56.778Z,27.03
2019-01-29T05:11:41.708Z,28.33
2019-01-29T05:14:26.929Z,33.03
2019-01-29T05:17:27.827Z,30.00
2019-01-29T05:20:08.918Z,28.10
2019-01-29T05:22:50.034Z,29.20
2019-01-29T05:26:11.783Z,26.07
2019-01-29T05:28:54.339Z,32.33
2019-01-29T05:31:53.261Z,31.13
2019-01-29T05:35:00.309Z,33.40
2019-01-29T05:38:14.698Z,37.83
2019-01-29T05:41:06.885Z,37.47
2019-01-29T05:43:44.323Z,32.10
2019-01-29T05:46:33.826Z,36.77
2019-01-29T05:49:31.218Z,35.73
2019-01-29T05:55:43.366Z,35.67
2019-01-29T05:58:47.092Z,34.63
2019-01-29T06:01:43.164Z,31.57
2019-01-29T06:04:24.472Z,36.97
2019-01-29T06:07:26.078Z,33.43
2019-01-29T06:10:20.463Z,33.57
2019-01-29T06:12:52.934Z,38.43
2019-01-29T06:15:37.297Z,41.30
2019-01-29T06:18:12.678Z,35.00
2019-01-29T06:22:16.949Z,40.97
2019-01-29T06:24:56.048Z,40.33
2019-01-29T06:27:38.362Z,37.97
2019-01-29T06:30:18.220Z,36.20
2019-01-29T06:33:05.036Z,30.53
2019-01-29T06:36:15.428Z,37.30
2019-01-29T06:38:52.033Z,41.67
2019-01-29T06:41:35.389Z,43.60
2019-01-29T06:44:19.521Z,37.30
2019-01-29T06:47:16.907Z,38.40
2019-01-29T06:49:54.659Z,31.70
2019-01-29T06:52:39.491Z,33.87
2019-01-29T06:55:56.607Z,38.27
2019-01-29T06:58:16.661Z,29.83
2019-01-29T07:01:05.711Z,28.87
2019-01-29T07:04:28.054Z,27.43
2019-01-29T07:07:09.846Z,29.87
2019-01-29T07:09:44.488Z,31.07
2019-01-29T07:12:18.492Z,29.43
2019-01-29T07:14:49.370Z,36.50
2019-01-29T07:17:31.269Z,32.77
2019-01-29T07:20:28.682Z,36.47
2019-01-29T07:23:31.778Z,32.40
2019-01-29T07:26:26.011Z,29.73
2019-01-29T07:29:08.107Z,32.90
2019-01-29T07:32:29.708Z,29.13
2019-01-29T07:35:23.616Z,30.93
2019-01-29T07:38:19.823Z,35.47
2019-01-29T07:40:57.300Z,27.23
2019-01-29T07:43:33.187Z,28.23
2019-01-29T07:46:20.739Z,29.03
2019-01-29T07:49:27.478Z,29.17
2019-01-29T07:52:12.956Z,29.70
2019-01-29T07:54:54.720Z,26.03
2019-01-29T07:57:45.241Z,29.77
2019-01-29T08:00:45.918Z,26.07
2019-01-29T08:03:21.126Z,26.53
2019-01-29T08:06:06.261Z,24.00
2019-01-29T08:09:09.194Z,30.23
2019-01-29T08:12:06.911Z,23.53
2019-01-29T08:15:06.427Z,25.97
2019-01-29T08:18:30.173Z,27.73
2019-01-29T08:22:23.538Z,24.20
2019-01-29T08:24:33.226Z,26.27
2019-01-29T08:27:12.228Z,27.63
2019-01-29T08:29:56.975Z,27.07
2019-01-29T08:33:01.644Z,28.40
2019-01-29T08:36:32.541Z,26.07
2019-01-29T08:38:57.309Z,26.50
2019-01-29T08:41:49.686Z,31.47
2019-01-29T08:44:23.627Z,26.83
2019-01-29T08:47:10.350Z,28.37
2019-01-29T08:49:56.596Z,25.13
2019-01-29T08:52:56.734Z,26.73
2019-01-29T08:55:38.006Z,26.80
2019-01-29T08:58:27.291Z,28.13
2019-01-29T09:01:14.414Z,27.53
2019-01-29T09:03:54.488Z,23.03
2019-01-29T09:07:03.755Z,25.23
2019-01-29T09:10:08.459Z,24.33
2019-01-29T09:12:48.988Z,29.77
2019-01-29T09:15:43.455Z,23.83
2019-01-29T09:18:20.050Z,25.43
2019-01-29T09:21:17.444Z,23.00
2019-01-29T09:23:58.925Z,23.70
2019-01-29T09:26:40.950Z,24.77
2019-01-29T09:29:31.767Z,27.27
2019-01-29T09:32:54.028Z,23.20
2019-01-29T09:35:47.854Z,21.10
2019-01-29T09:38:45.344Z,19.67
2019-01-29T09:41:28.658Z,22.87
2019-01-29T09:44:34.614Z,22.90
2019-01-29T09:47:27.795Z,23.27
2019-01-29T09:50:33.331Z,22.57
2019-01-29T09:56:50.046Z,20.97
2019-01-29T09:59:20.067Z,21.17
2019-01-29T10:02:38.854Z,23.90
2019-01-29T10:05:45.678Z,25.23
2019-01-29T10:09:13.400Z,20.93
2019-01-29T10:12:22.252Z,23.27
2019-01-29T10:15:15.549Z,22.37
2019-01-29T10:18:20.965Z,19.33
2019-01-29T10:21:11.420Z,23.60
2019-01-29T10:24:12.596Z,21.63
2019-01-29T10:26:55.655Z,22.77
2019-01-29T10:29:46.214Z,36.73
2019-01-29T10:32:37.052Z,21.37
2019-01-29T10:35:59.813Z,28.30
2019-01-29T10:38:45.218Z,32.63
2019-01-29T10:41:57.041Z,40.53
2019-01-29T10:44:57.406Z,53.83
2019-01-29T10:47:46.533Z,63.43
2019-01-29T10:50:48.635Z,59.43
2019-01-29T10:53:46.249Z,64.03
2019-01-29T10:56:42.668Z,62.30
2019-01-29T10:59:28.266Z,56.63
2019-01-29T11:02:01.714Z,52.73
2019-01-29T11:08:24.717Z,51.53
2019-01-29T11:11:08.807Z,59.40
2019-01-29T11:13:54.622Z,71.40
2019-01-29T11:16:31.722Z,53.33
2019-01-29T11:19:14.642Z,54.70
2019-01-29T11:22:05.389Z,52.50
2019-01-29T11:24:54.547Z,57.57
2019-01-29T11:27:36.379Z,63.47
2019-01-29T11:30:36.024Z,55.77
2019-01-29T11:33:55.965Z,53.33
2019-01-29T11:36:36.286Z,52.73
2019-01-29T11:39:32.328Z,51.50
2019-01-29T11:42:36.693Z,58.20
2019-01-29T11:45:48.650Z,56.17
2019-01-29T11:48:54.298Z,56.40
2019-01-29T11:52:01.182Z,53.63
2019-01-29T11:55:02.572Z,56.03
2019-01-29T11:57:54.815Z,58.93
2019-01-29T12:01:06.241Z,59.70
2019-01-29T12:03:59.599Z,65.67
2019-01-29T12:06:42.134Z,66.70
2019-01-29T12:09:46.954Z,59.40
2019-01-29T12:12:23.337Z,59.43
2019-01-29T12:15:00.410Z,58.23
2019-01-29T12:17:44.971Z,53.30
2019-01-29T12:20:22.989Z,49.23
2019-01-29T12:23:21.103Z,48.47
2019-01-29T12:28:30.389Z,48.87
2019-01-29T12:29:45.976Z,48.40
2019-01-29T12:32:48.105Z,57.27
2019-01-29T12:35:16.883Z,46.77
2019-01-29T12:37:59.243Z,49.63
2019-01-29T12:41:08.576Z,49.50
2019-01-29T12:43:24.054Z,44.33
2019-01-29T12:45:55.101Z,48.53
2019-01-29T12:48:28.219Z,45.47
2019-01-29T12:51:04.662Z,44.30
2019-01-29T12:53:39.749Z,46.03
2019-01-29T12:56:21.440Z,45.03
2019-01-29T12:58:47.906Z,47.03
2019-01-29T13:01:23.087Z,45.40
2019-01-29T13:04:06.471Z,44.70
2019-01-29T13:06:39.831Z,46.10
2019-01-29T13:09:12.568Z,43.33
2019-01-29T13:11:45.686Z,44.03
2019-01-29T13:14:19.300Z,40.97
2019-01-29T13:16:56.861Z,41.70
2019-01-29T13:19:33.567Z,40.23
2019-01-29T13:22:19.617Z,39.80
2019-01-29T13:24:55.043Z,47.37
2019-01-29T13:27:27.509Z,43.40
2019-01-29T13:30:03.080Z,42.07
2019-01-29T13:32:34.236Z,42.77
2019-01-29T13:35:09.273Z,37.03
2019-01-29T13:37:46.261Z,47.67
2019-01-29T13:40:18.992Z,40.40
2019-01-29T13:42:53.459Z,38.97
2019-01-29T13:45:24.077Z,38.77
2019-01-29T13:47:54.732Z,38.20
2019-01-29T13:50:33.010Z,33.37
2019-01-29T13:53:04.646Z,33.63
2019-01-29T13:55:35.191Z,30.67
2019-01-29T13:58:23.756Z,34.20
2019-01-29T14:00:54.097Z,36.33
2019-01-29T14:03:26.968Z,34.63
2019-01-29T14:05:57.776Z,27.60
2019-01-29T14:08:28.530Z,30.43
2019-01-29T14:11:00.899Z,30.53
2019-01-29T14:13:31.722Z,28.20
2019-01-29T14:16:08.927Z,23.87
2019-01-29T14:18:54.805Z,23.80
2019-01-29T14:21:17.667Z,24.43
2019-01-29T14:23:48.406Z,17.47
2019-01-29T14:26:20.724Z,12.07
2019-01-29T14:28:51.048Z,9.97
2019-01-29T14:31:21.378Z,14.40
2019-01-29T14:33:52.084Z,13.03
2019-01-29T14:36:22.474Z,14.30
2019-01-29T14:39:13.149Z,13.77
2019-01-29T14:41:48.843Z,13.50
2019-01-29T14:44:42.750Z,10.50
2019-01-29T14:47:15.699Z,10.47
2019-01-29T14:49:46.176Z,10.00
2019-01-29T14:52:17.253Z,17.27
2019-01-29T14:54:47.609Z,12.83
2019-01-29T14:57:19.269Z,12.20
2019-01-29T14:59:51.029Z,11.17
2019-01-29T15:02:21.439Z,12.93
2019-01-29T15:04:55.320Z,12.13
2019-01-29T15:07:30.581Z,13.57
2019-01-29T15:10:11.426Z,12.73
2019-01-29T15:12:45.281Z,13.13
2019-01-29T15:15:17.860Z,12.97
2019-01-29T15:17:55.183Z,11.63
2019-01-29T15:20:26.895Z,12.43
2019-01-29T15:22:58.046Z,14.90
2019-01-29T15:25:30.417Z,13.70
2019-01-29T15:28:04.594Z,12.60
2019-01-29T15:30:38.187Z,12.73
2019-01-29T15:33:15.443Z,15.10
2019-01-29T15:35:47.686Z,17.93
2019-01-29T15:38:20.399Z,15.40
2019-01-29T15:40:54.838Z,16.47
2019-01-29T15:43:27.694Z,12.10
2019-01-29T15:46:05.724Z,16.93
2019-01-29T15:48:41.282Z,11.73
2019-01-29T15:51:19.576Z,13.30
2019-01-29T15:53:54.272Z,15.83
2019-01-29T15:56:26.678Z,14.50
2019-01-29T15:58:57.335Z,16.13
2019-01-29T16:01:30.157Z,12.33
2019-01-29T16:04:08.841Z,17.13
2019-01-29T16:06:44.878Z,19.73
2019-01-29T16:09:20.256Z,12.33
2019-01-29T16:11:58.295Z,15.17
2019-01-29T16:14:38.968Z,16.43
2019-01-29T16:17:12.761Z,13.77
2019-01-29T16:19:45.915Z,14.10
2019-01-29T16:22:46.361Z,15.23
2019-01-29T16:25:19.053Z,20.27
2019-01-29T16:27:49.692Z,17.57
2019-01-29T16:30:24.925Z,16.27
2019-01-29T16:32:59.291Z,18.37
2019-01-29T16:35:33.381Z,15.13
2019-01-29T16:38:04.312Z,12.03
2019-01-29T16:40:36.585Z,14.97
2019-01-29T16:43:07.117Z,15.97
2019-01-29T16:45:38.211Z,14.80
2019-01-29T16:48:12.564Z,16.60
2019-01-29T16:50:43.662Z,16.33
2019-01-29T16:53:15.076Z,17.27
2019-01-29T16:55:48.089Z,15.90
2019-01-29T16:58:18.712Z,17.77
2019-01-29T17:00:49.514Z,18.87
2019-01-29T17:03:21.179Z,19.40
2019-01-29T17:05:51.967Z,14.87
2019-01-29T17:08:22.369Z,17.40
2019-01-29T17:10:53.525Z,18.03
2019-01-29T17:13:23.930Z,22.07
2019-01-29T17:15:58.679Z,15.33
2019-01-29T17:18:29.193Z,22.90
2019-01-29T17:20:59.829Z,15.13
2019-01-29T17:23:32.187Z,17.23
2019-01-29T17:26:05.156Z,14.50
2019-01-29T17:28:36.852Z,16.57
2019-01-29T17:31:09.535Z,18.47
2019-01-29T17:33:41.445Z,18.47
2019-01-29T17:37:05.624Z,20.63
2019-01-29T17:39:40.610Z,15.57
2019-01-29T17:42:27.673Z,15.50
2019-01-29T17:45:43.074Z,16.77
2019-01-29T17:47:55.484Z,19.10
2019-01-29T17:50:28.802Z,18.50
2019-01-29T17:53:38.014Z,19.17
2019-01-29T17:56:31.605Z,20.10
2019-01-29T17:59:09.748Z,21.30
2019-01-29T18:01:57.558Z,17.30
2019-01-29T18:04:29.303Z,19.50
2019-01-29T18:07:26.044Z,19.40
2019-01-29T18:09:42.301Z,22.80
2019-01-29T18:12:14.387Z,24.00
2019-01-29T18:15:07.812Z,23.00
2019-01-29T18:18:15.987Z,20.07
2019-01-29T18:20:59.356Z,21.03
2019-01-29T18:23:49.056Z,15.93
2019-01-29T18:26:26.070Z,19.90
2019-01-29T18:29:06.657Z,20.63
2019-01-29T18:32:03.922Z,29.73
2019-01-29T18:34:35.074Z,23.23
2019-01-29T18:37:08.201Z,17.00
2019-01-29T18:39:48.550Z,20.97
2019-01-29T18:42:18.586Z,20.63
2019-01-29T18:44:52.203Z,25.93
2019-01-29T18:47:23.598Z,21.97
2019-01-29T18:49:55.309Z,24.27
2019-01-29T18:52:31.450Z,20.83
2019-01-29T18:55:02.469Z,19.90
2019-01-29T18:57:32.966Z,24.13
2019-01-29T19:00:09.128Z,19.87
2019-01-29T19:02:39.742Z,23.57
2019-01-29T19:05:15.918Z,23.10
2019-01-29T19:07:46.704Z,24.07
2019-01-29T19:10:20.803Z,23.27
2019-01-29T19:12:54.328Z,23.47
2019-01-29T19:15:38.254Z,23.03
2019-01-29T19:18:09.304Z,25.47
2019-01-29T19:20:41.496Z,22.07
2019-01-29T19:23:18.477Z,28.63
2019-01-29T19:25:48.851Z,23.73
2019-01-29T19:28:22.156Z,25.33
2019-01-29T19:30:54.445Z,26.90
2019-01-29T19:33:26.750Z,23.20
2019-01-29T19:36:01.827Z,23.90
2019-01-29T19:38:44.980Z,22.63
2019-01-29T19:41:19.670Z,25.67
2019-01-29T19:43:57.867Z,19.73
2019-01-29T19:46:33.544Z,19.17
2019-01-29T19:49:13.428Z,24.30
2019-01-29T19:51:50.419Z,21.83
2019-01-29T19:54:40.798Z,22.33
2019-01-29T19:57:14.375Z,25.77
2019-01-29T19:59:53.318Z,23.30
2019-01-29T20:02:32.916Z,23.30
2019-01-29T20:05:11.421Z,25.83
2019-01-29T20:07:49.888Z,21.77
2019-01-29T20:10:24.182Z,21.43
2019-01-29T20:13:00.335Z,20.77
2019-01-29T20:15:39.310Z,23.27
2019-01-29T20:18:24.759Z,22.50
2019-01-29T20:21:01.175Z,21.00
2019-01-29T20:23:51.160Z,28.70
2019-01-29T20:26:27.474Z,22.37
2019-01-29T20:29:29.275Z,23.37
2019-01-29T20:32:04.414Z,19.87
2019-01-29T20:34:39.184Z,21.97
2019-01-29T20:37:20.944Z,24.83
2019-01-29T20:40:08.787Z,20.60
2019-01-29T20:42:48.276Z,19.87
2019-01-29T20:45:24.898Z,22.03
2019-01-29T20:48:08.636Z,19.37
2019-01-29T20:51:16.010Z,20.27
2019-01-29T20:57:42.374Z,18.53
2019-01-29T20:59:53.668Z,23.70
2019-01-29T21:02:51.686Z,20.10
2019-01-29T21:05:20.236Z,20.80
2019-01-29T21:08:13.307Z,21.57
2019-01-29T21:11:06.248Z,15.90
2019-01-29T21:13:44.635Z,17.97
2019-01-29T21:16:23.376Z,18.77
2019-01-29T21:18:58.023Z,17.90
2019-01-29T21:21:32.753Z,24.77
2019-01-29T21:24:16.538Z,18.03
2019-01-29T21:26:49.381Z,22.97
2019-01-29T21:30:33.023Z,18.60
2019-01-29T21:34:09.760Z,18.40
2019-01-29T21:36:32.876Z,17.77
2019-01-29T21:42:24.967Z,20.47
2019-01-29T21:45:56.061Z,15.77
2019-01-29T21:49:54.168Z,20.07
2019-01-29T21:56:13.653Z,17.80
2019-01-29T21:58:56.402Z,17.93
2019-01-29T22:01:36.725Z,18.90
2019-01-29T22:04:17.257Z,19.40
2019-01-29T22:06:57.398Z,23.77
2019-01-29T22:09:45.210Z,15.13
2019-01-29T22:12:09.631Z,19.10
2019-01-29T22:14:47.768Z,14.97
2019-01-29T22:17:28.638Z,17.67
2019-01-29T22:20:01.703Z,17.90
2019-01-29T22:22:47.797Z,17.73
2019-01-29T22:25:12.918Z,17.93
2019-01-29T22:27:49.142Z,16.37
2019-01-29T22:30:39.670Z,18.33
2019-01-29T22:33:19.348Z,17.73
2019-01-29T22:36:09.658Z,14.23
2019-01-29T22:38:55.028Z,16.00
2019-01-29T22:41:27.867Z,15.07
2019-01-29T22:44:09.945Z,12.97
2019-01-29T22:46:54.399Z,20.37
2019-01-29T22:49:30.649Z,15.63
2019-01-29T22:52:07.850Z,14.60
2019-01-29T22:54:44.719Z,14.13
2019-01-29T22:57:26.068Z,15.47
2019-01-29T23:00:02.304Z,14.63
2019-01-29T23:02:36.357Z,15.40
2019-01-29T23:05:14.023Z,14.90
2019-01-29T23:07:53.161Z,13.63
2019-01-29T23:10:43.198Z,14.57
2019-01-29T23:13:19.969Z,15.00
2019-01-29T23:16:08.703Z,14.80
2019-01-29T23:18:49.390Z,15.90
2019-01-29T23:21:26.291Z,15.20
2019-01-29T23:24:09.248Z,13.27
2019-01-29T23:27:00.950Z,13.67
2019-01-29T23:29:43.211Z,14.07
2019-01-29T23:32:17.738Z,21.07
2019-01-29T23:35:07.838Z,14.10
2019-01-29T23:37:46.609Z,14.10
2019-01-29T23:40:28.752Z,16.47
2019-01-29T23:43:05.264Z,12.73
2019-01-29T23:45:42.944Z,13.50
2019-01-29T23:48:28.457Z,18.30
2019-01-29T23:51:14.619Z,13.70
2019-01-29T23:53:54.198Z,16.23
2019-01-29T23:56:27.438Z,13.17
2019-01-29T23:59:14.117Z,17.47
